sensor_id;sensor_type;location;lat;lon;timestamp;pressure;altitude;pressure_sealevel;temperature;humidity
4012;BME280;2020;48.682;9.024;2023-04-24T00:01:57;95459.66;;;8.75;96.10
4012;BME280;2020;48.682;9.024;2023-04-24T00:04:23;95466.00;;;8.81;95.89
4012;BME280;2020;48.682;9.024;2023-04-24T00:06:51;95477.69;;;8.76;96.03
4012;BME280;2020;48.682;9.024;2023-04-24T00:09:19;95481.91;;;8.69;95.92
4012;BME280;2020;48.682;9.024;2023-04-24T00:11:44;95476.41;;;8.72;95.87
4012;BME280;2020;48.682;9.024;2023-04-24T00:14:10;95464.41;;;8.71;95.83
4012;BME280;2020;48.682;9.024;2023-04-24T00:16:35;95467.31;;;8.76;95.79
4012;BME280;2020;48.682;9.024;2023-04-24T00:19:00;95470.53;;;8.78;95.31
4012;BME280;2020;48.682;9.024;2023-04-24T00:21:26;95471.81;;;8.83;95.25
4012;BME280;2020;48.682;9.024;2023-04-24T00:23:51;95474.91;;;8.78;94.99
4012;BME280;2020;48.682;9.024;2023-04-24T00:26:17;95478.63;;;8.84;94.68
4012;BME280;2020;48.682;9.024;2023-04-24T00:28:42;95487.03;;;8.86;95.16
4012;BME280;2020;48.682;9.024;2023-04-24T00:31:08;95479.91;;;8.88;94.09
4012;BME280;2020;48.682;9.024;2023-04-24T00:33:33;95472.28;;;8.86;94.00
4012;BME280;2020;48.682;9.024;2023-04-24T00:35:58;95470.19;;;8.82;94.57
4012;BME280;2020;48.682;9.024;2023-04-24T00:38:24;95466.63;;;8.83;93.82
4012;BME280;2020;48.682;9.024;2023-04-24T00:40:49;95469.22;;;8.83;93.33
4012;BME280;2020;48.682;9.024;2023-04-24T00:43:16;95469.84;;;8.85;92.78
4012;BME280;2020;48.682;9.024;2023-04-24T00:45:41;95454.75;;;8.88;93.31
4012;BME280;2020;48.682;9.024;2023-04-24T00:48:07;95452.00;;;8.90;92.73
4012;BME280;2020;48.682;9.024;2023-04-24T00:50:32;95453.28;;;8.94;92.66
4012;BME280;2020;48.682;9.024;2023-04-24T00:52:58;95451.84;;;8.83;92.12
4012;BME280;2020;48.682;9.024;2023-04-24T00:55:24;95452.00;;;8.90;92.52
4012;BME280;2020;48.682;9.024;2023-04-24T00:57:49;95450.72;;;8.86;92.50
4012;BME280;2020;48.682;9.024;2023-04-24T01:00:15;95447.44;;;8.92;92.08
4012;BME280;2020;48.682;9.024;2023-04-24T01:02:43;95441.28;;;8.93;92.89
4012;BME280;2020;48.682;9.024;2023-04-24T01:05:12;95440.44;;;8.92;92.85
4012;BME280;2020;48.682;9.024;2023-04-24T01:07:39;95433.50;;;8.93;92.29
4012;BME280;2020;48.682;9.024;2023-04-24T01:10:07;95435.41;;;8.99;92.24
4012;BME280;2020;48.682;9.024;2023-04-24T01:12:32;95432.16;;;8.97;92.36
4012;BME280;2020;48.682;9.024;2023-04-24T01:14:58;95437.69;;;8.94;93.38
4012;BME280;2020;48.682;9.024;2023-04-24T01:17:24;95432.16;;;8.97;93.05
4012;BME280;2020;48.682;9.024;2023-04-24T01:19:49;95428.94;;;8.95;93.79
4012;BME280;2020;48.682;9.024;2023-04-24T01:22:14;95429.22;;;9.00;92.96
4012;BME280;2020;48.682;9.024;2023-04-24T01:24:40;95434.09;;;9.03;93.52
4012;BME280;2020;48.682;9.024;2023-04-24T01:27:07;95430.16;;;9.07;91.83
4012;BME280;2020;48.682;9.024;2023-04-24T01:29:34;95435.75;;;8.96;91.87
4012;BME280;2020;48.682;9.024;2023-04-24T01:31:59;95420.81;;;8.98;92.74
4012;BME280;2020;48.682;9.024;2023-04-24T01:34:25;95420.81;;;8.98;92.55
4012;BME280;2020;48.682;9.024;2023-04-24T01:36:51;95419.00;;;8.99;92.01
4012;BME280;2020;48.682;9.024;2023-04-24T01:39:16;95425.03;;;8.99;92.33
4012;BME280;2020;48.682;9.024;2023-04-24T01:41:42;95419.34;;;8.96;93.30
4012;BME280;2020;48.682;9.024;2023-04-24T01:44:07;95419.69;;;8.92;93.87
4012;BME280;2020;48.682;9.024;2023-04-24T01:46:32;95420.56;;;8.85;95.62
4012;BME280;2020;48.682;9.024;2023-04-24T01:49:00;95409.19;;;8.86;96.22
4012;BME280;2020;48.682;9.024;2023-04-24T01:51:25;95418.66;;;8.78;96.43
4012;BME280;2020;48.682;9.024;2023-04-24T01:53:52;95421.63;;;8.67;97.49
4012;BME280;2020;48.682;9.024;2023-04-24T01:56:19;95422.59;;;8.58;99.21
4012;BME280;2020;48.682;9.024;2023-04-24T01:58:45;95429.41;;;8.59;100.00
4012;BME280;2020;48.682;9.024;2023-04-24T02:01:17;95421.16;;;8.55;100.00
4012;BME280;2020;48.682;9.024;2023-04-24T02:03:43;95421.63;;;8.67;100.00
4012;BME280;2020;48.682;9.024;2023-04-24T02:06:08;95420.00;;;8.66;100.00
4012;BME280;2020;48.682;9.024;2023-04-24T02:08:33;95425.34;;;8.65;99.53
4012;BME280;2020;48.682;9.024;2023-04-24T02:10:58;95411.59;;;8.64;99.71
4012;BME280;2020;48.682;9.024;2023-04-24T02:13:24;95411.25;;;8.59;98.97
4012;BME280;2020;48.682;9.024;2023-04-24T02:15:49;95420.97;;;8.57;99.11
4012;BME280;2020;48.682;9.024;2023-04-24T02:18:14;95416.13;;;8.54;99.15
4012;BME280;2020;48.682;9.024;2023-04-24T02:20:40;95421.66;;;8.51;99.09
4012;BME280;2020;48.682;9.024;2023-04-24T02:23:05;95420.03;;;8.49;98.96
4012;BME280;2020;48.682;9.024;2023-04-24T02:25:31;95414.84;;;8.49;99.78
4012;BME280;2020;48.682;9.024;2023-04-24T02:27:56;95418.72;;;8.45;100.00
4012;BME280;2020;48.682;9.024;2023-04-24T02:30:21;95425.53;;;8.46;99.90
4012;BME280;2020;48.682;9.024;2023-04-24T02:32:47;95421.97;;;8.47;100.00
4012;BME280;2020;48.682;9.024;2023-04-24T02:35:12;95423.47;;;8.42;100.00
4012;BME280;2020;48.682;9.024;2023-04-24T02:37:37;95421.66;;;8.51;99.62
4012;BME280;2020;48.682;9.024;2023-04-24T02:40:03;95422.78;;;8.48;99.94
4012;BME280;2020;48.682;9.024;2023-04-24T02:42:29;95419.72;;;8.53;99.21
4012;BME280;2020;48.682;9.024;2023-04-24T02:44:54;95416.78;;;8.64;99.47
4012;BME280;2020;48.682;9.024;2023-04-24T02:47:19;95428.75;;;8.65;98.25
4012;BME280;2020;48.682;9.024;2023-04-24T02:49:45;95429.41;;;8.67;98.41
4012;BME280;2020;48.682;9.024;2023-04-24T02:52:10;95425.78;;;8.76;98.62
4012;BME280;2020;48.682;9.024;2023-04-24T02:54:35;95431.63;;;8.78;98.76
4012;BME280;2020;48.682;9.024;2023-04-24T02:57:00;95429.38;;;8.75;98.94
4012;BME280;2020;48.682;9.024;2023-04-24T02:59:26;95427.44;;;8.69;100.00
4012;BME280;2020;48.682;9.024;2023-04-24T03:01:53;95421.94;;;8.64;99.82
4012;BME280;2020;48.682;9.024;2023-04-24T03:04:19;95422.59;;;8.58;100.00
4012;BME280;2020;48.682;9.024;2023-04-24T03:06:45;95425.84;;;8.60;100.00
4012;BME280;2020;48.682;9.024;2023-04-24T03:09:10;95417.94;;;8.45;100.00
4012;BME280;2020;48.682;9.024;2023-04-24T03:11:36;95412.59;;;8.38;100.00
4012;BME280;2020;48.682;9.024;2023-04-24T03:14:01;95409.69;;;8.33;100.00
4012;BME280;2020;48.682;9.024;2023-04-24T03:16:27;95417.16;;;8.28;100.00
4012;BME280;2020;48.682;9.024;2023-04-24T03:18:52;95411.34;;;8.26;100.00
4012;BME280;2020;48.682;9.024;2023-04-24T03:21:17;95402.28;;;8.22;100.00
4012;BME280;2020;48.682;9.024;2023-04-24T03:23:43;95397.09;;;8.22;100.00
4012;BME280;2020;48.682;9.024;2023-04-24T03:26:08;95402.31;;;8.13;100.00
4012;BME280;2020;48.682;9.024;2023-04-24T03:28:33;95407.47;;;8.22;100.00
4012;BME280;2020;48.682;9.024;2023-04-24T03:30:59;95407.78;;;8.18;100.00
4012;BME280;2020;48.682;9.024;2023-04-24T03:33:24;95402.28;;;8.22;100.00
4012;BME280;2020;48.682;9.024;2023-04-24T03:35:50;95404.56;;;8.16;100.00
4012;BME280;2020;48.682;9.024;2023-04-24T03:38:15;95393.88;;;8.19;100.00
4012;BME280;2020;48.682;9.024;2023-04-24T03:40:40;95395.03;;;8.17;100.00
4012;BME280;2020;48.682;9.024;2023-04-24T03:43:06;95395.81;;;8.17;100.00
4012;BME280;2020;48.682;9.024;2023-04-24T03:45:31;95383.81;;;8.16;100.00
4012;BME280;2020;48.682;9.024;2023-04-24T03:47:56;95392.91;;;8.12;100.00
4012;BME280;2020;48.682;9.024;2023-04-24T03:50:21;95393.91;;;8.03;100.00
4012;BME280;2020;48.682;9.024;2023-04-24T03:52:47;95391.34;;;7.95;100.00
4012;BME280;2020;48.682;9.024;2023-04-24T03:55:12;95396.19;;;7.98;100.00
4012;BME280;2020;48.682;9.024;2023-04-24T03:57:42;95398.47;;;7.93;100.00
4012;BME280;2020;48.682;9.024;2023-04-24T04:00:08;95400.22;;;7.92;100.00
4012;BME280;2020;48.682;9.024;2023-04-24T04:02:34;95404.78;;;7.90;100.00
4012;BME280;2020;48.682;9.024;2023-04-24T04:04:59;95405.59;;;7.90;100.00
4012;BME280;2020;48.682;9.024;2023-04-24T04:07:24;95408.34;;;7.97;100.00
4012;BME280;2020;48.682;9.024;2023-04-24T04:09:50;95410.78;;;7.90;100.00
4012;BME280;2020;48.682;9.024;2023-04-24T04:12:15;95413.69;;;7.96;100.00
4012;BME280;2020;48.682;9.024;2023-04-24T04:14:41;95418.53;;;7.99;100.00
4012;BME280;2020;48.682;9.024;2023-04-24T04:17:06;95430.03;;;8.13;100.00
4012;BME280;2020;48.682;9.024;2023-04-24T04:19:32;95436.00;;;8.13;100.00
4012;BME280;2020;48.682;9.024;2023-04-24T04:21:57;95437.31;;;8.09;100.00
4012;BME280;2020;48.682;9.024;2023-04-24T04:24:22;95448.31;;;8.11;100.00
4012;BME280;2020;48.682;9.024;2023-04-24T04:26:49;95470.66;;;8.12;100.00
4012;BME280;2020;48.682;9.024;2023-04-24T04:29:16;95483.00;;;7.94;100.00
4012;BME280;2020;48.682;9.024;2023-04-24T04:31:42;95490.13;;;7.83;100.00
4012;BME280;2020;48.682;9.024;2023-04-24T04:34:08;95487.53;;;7.50;100.00
4012;BME280;2020;48.682;9.024;2023-04-24T04:36:34;95484.28;;;7.48;100.00
4012;BME280;2020;48.682;9.024;2023-04-24T04:39:02;95485.91;;;7.41;100.00
4012;BME280;2020;48.682;9.024;2023-04-24T04:41:27;95487.84;;;7.47;100.00
4012;BME280;2020;48.682;9.024;2023-04-24T04:43:53;95487.84;;;7.55;100.00
4012;BME280;2020;48.682;9.024;2023-04-24T04:46:18;95495.63;;;7.55;100.00
4012;BME280;2020;48.682;9.024;2023-04-24T04:48:43;95488.00;;;7.54;100.00
4012;BME280;2020;48.682;9.024;2023-04-24T04:51:09;95483.97;;;7.51;100.00
4012;BME280;2020;48.682;9.024;2023-04-24T04:53:34;95490.44;;;7.55;100.00
4012;BME280;2020;48.682;9.024;2023-04-24T04:56:00;95500.47;;;7.58;100.00
4012;BME280;2020;48.682;9.024;2023-04-24T04:58:25;95503.72;;;7.52;100.00
4012;BME280;2020;48.682;9.024;2023-04-24T05:00:51;95505.66;;;7.58;100.00
4012;BME280;2020;48.682;9.024;2023-04-24T05:03:17;95510.84;;;7.58;100.00
4012;BME280;2020;48.682;9.024;2023-04-24T05:05:42;95516.00;;;7.58;100.00
4012;BME280;2020;48.682;9.024;2023-04-24T05:08:07;95517.44;;;7.53;99.62
4012;BME280;2020;48.682;9.024;2023-04-24T05:10:33;95520.88;;;7.53;99.80
4012;BME280;2020;48.682;9.024;2023-04-24T05:12:58;95516.66;;;7.52;100.00
4012;BME280;2020;48.682;9.024;2023-04-24T05:15:24;95518.59;;;7.50;99.21
4012;BME280;2020;48.682;9.024;2023-04-24T05:17:49;95522.47;;;7.46;99.70
4012;BME280;2020;48.682;9.024;2023-04-24T05:20:15;95535.13;;;7.57;99.79
4012;BME280;2020;48.682;9.024;2023-04-24T05:22:40;95545.16;;;7.60;100.00
4012;BME280;2020;48.682;9.024;2023-04-24T05:25:05;95548.06;;;7.66;100.00
4012;BME280;2020;48.682;9.024;2023-04-24T05:27:31;95547.56;;;7.62;99.50
4012;BME280;2020;48.682;9.024;2023-04-24T05:29:56;95559.06;;;7.59;100.00
4012;BME280;2020;48.682;9.024;2023-04-24T05:32:21;95554.22;;;7.56;100.00
4012;BME280;2020;48.682;9.024;2023-04-24T05:34:46;95562.31;;;7.61;100.00
4012;BME280;2020;48.682;9.024;2023-04-24T05:37:12;95565.56;;;7.72;100.00
4012;BME280;2020;48.682;9.024;2023-04-24T05:39:38;95563.13;;;7.70;100.00
4012;BME280;2020;48.682;9.024;2023-04-24T05:42:03;95557.78;;;7.72;100.00
4012;BME280;2020;48.682;9.024;2023-04-24T05:44:30;95564.28;;;7.76;99.93
4012;BME280;2020;48.682;9.024;2023-04-24T05:46:55;95566.22;;;7.74;99.71
4012;BME280;2020;48.682;9.024;2023-04-24T05:49:21;95565.22;;;7.67;98.82
4012;BME280;2020;48.682;9.024;2023-04-24T05:51:46;95569.13;;;7.63;98.22
4012;BME280;2020;48.682;9.024;2023-04-24T05:54:11;95580.72;;;7.50;97.34
4012;BME280;2020;48.682;9.024;2023-04-24T05:56:37;95578.47;;;7.55;96.89
4012;BME280;2020;48.682;9.024;2023-04-24T05:59:03;95580.59;;;7.60;97.64
4012;BME280;2020;48.682;9.024;2023-04-24T06:01:28;95581.22;;;7.62;96.88
4012;BME280;2020;48.682;9.024;2023-04-24T06:03:54;95579.16;;;7.66;99.08
4012;BME280;2020;48.682;9.024;2023-04-24T06:06:20;95584.00;;;7.69;96.80
4012;BME280;2020;48.682;9.024;2023-04-24T06:08:45;95582.09;;;7.87;96.62
4012;BME280;2020;48.682;9.024;2023-04-24T06:11:11;95586.63;;;7.94;95.08
4012;BME280;2020;48.682;9.024;2023-04-24T06:13:36;95581.78;;;8.40;95.91
4012;BME280;2020;48.682;9.024;2023-04-24T06:16:01;95587.31;;;8.70;94.94
4012;BME280;2020;48.682;9.024;2023-04-24T06:18:27;95581.09;;;8.96;91.01
4012;BME280;2020;48.682;9.024;2023-04-24T06:20:52;95581.34;;;9.10;90.53
4012;BME280;2020;48.682;9.024;2023-04-24T06:23:17;95584.88;;;9.25;87.73
4012;BME280;2020;48.682;9.024;2023-04-24T06:25:42;95579.94;;;9.39;86.22
4012;BME280;2020;48.682;9.024;2023-04-24T06:28:08;95581.13;;;9.59;86.55
4012;BME280;2020;48.682;9.024;2023-04-24T06:30:33;95581.91;;;9.36;87.57
4012;BME280;2020;48.682;9.024;2023-04-24T06:32:58;95589.47;;;9.15;85.03
4012;BME280;2020;48.682;9.024;2023-04-24T06:35:23;95585.28;;;9.05;84.87
4012;BME280;2020;48.682;9.024;2023-04-24T06:37:49;95582.56;;;9.30;87.44
4012;BME280;2020;48.682;9.024;2023-04-24T06:40:14;95579.59;;;9.42;86.93
4012;BME280;2020;48.682;9.024;2023-04-24T06:42:39;95579.41;;;9.75;85.74
4012;BME280;2020;48.682;9.024;2023-04-24T06:45:05;95580.38;;;10.05;83.89
4012;BME280;2020;48.682;9.024;2023-04-24T06:47:31;95577.13;;;10.27;83.77
4012;BME280;2020;48.682;9.024;2023-04-24T06:49:56;95576.78;;;10.30;80.81
4012;BME280;2020;48.682;9.024;2023-04-24T06:52:22;95578.31;;;10.01;82.87
4012;BME280;2020;48.682;9.024;2023-04-24T06:54:47;95583.28;;;9.79;84.47
4012;BME280;2020;48.682;9.024;2023-04-24T06:57:12;95584.41;;;9.85;88.42
4012;BME280;2020;48.682;9.024;2023-04-24T06:59:38;95594.09;;;9.68;88.28
4012;BME280;2020;48.682;9.024;2023-04-24T07:02:03;95587.06;;;9.45;85.21
4012;BME280;2020;48.682;9.024;2023-04-24T07:04:29;95598.84;;;9.24;84.77
4012;BME280;2020;48.682;9.024;2023-04-24T07:06:55;95599.91;;;8.98;84.32
4012;BME280;2020;48.682;9.024;2023-04-24T07:09:21;95605.44;;;8.78;83.43
4012;BME280;2020;48.682;9.024;2023-04-24T07:11:47;95610.97;;;8.59;84.91
4012;BME280;2020;48.682;9.024;2023-04-24T07:14:13;95613.88;;;8.47;84.34
4012;BME280;2020;48.682;9.024;2023-04-24T07:16:38;95626.03;;;8.39;86.39
4012;BME280;2020;48.682;9.024;2023-04-24T07:19:04;95624.25;;;8.31;87.88
4012;BME280;2020;48.682;9.024;2023-04-24T07:21:29;95624.25;;;8.31;87.71
4012;BME280;2020;48.682;9.024;2023-04-24T07:23:56;95630.06;;;8.41;86.09
4012;BME280;2020;48.682;9.024;2023-04-24T07:26:21;95630.28;;;8.65;85.70
4012;BME280;2020;48.682;9.024;2023-04-24T07:28:47;95627.13;;;9.02;87.20
4012;BME280;2020;48.682;9.024;2023-04-24T07:31:12;95625.69;;;9.48;84.99
4012;BME280;2020;48.682;9.024;2023-04-24T07:33:37;95635.56;;;9.84;81.86
4012;BME280;2020;48.682;9.024;2023-04-24T07:36:03;95629.25;;;10.10;80.47
4012;BME280;2020;48.682;9.024;2023-04-24T07:38:31;95630.94;;;10.03;76.80
4012;BME280;2020;48.682;9.024;2023-04-24T07:40:57;95631.88;;;10.57;80.35
4012;BME280;2020;48.682;9.024;2023-04-24T07:43:22;95642.19;;;10.65;78.76
4012;BME280;2020;48.682;9.024;2023-04-24T07:45:49;95630.66;;;10.82;77.62
4012;BME280;2020;48.682;9.024;2023-04-24T07:48:14;95631.75;;;10.88;75.94
4012;BME280;2020;48.682;9.024;2023-04-24T07:50:41;95631.75;;;10.50;74.18
4012;BME280;2020;48.682;9.024;2023-04-24T07:53:07;95642.09;;;10.35;74.25
4012;BME280;2020;48.682;9.024;2023-04-24T07:55:32;95653.44;;;10.42;76.20
4012;BME280;2020;48.682;9.024;2023-04-24T07:57:57;95657.31;;;10.46;75.63
4012;BME280;2020;48.682;9.024;2023-04-24T08:00:23;95655.84;;;10.44;73.26
4012;BME280;2020;48.682;9.024;2023-04-24T08:02:48;95659.78;;;10.16;74.11
4012;BME280;2020;48.682;9.024;2023-04-24T08:05:13;95653.00;;;10.07;73.19
4012;BME280;2020;48.682;9.024;2023-04-24T08:07:38;95662.19;;;9.94;74.91
4012;BME280;2020;48.682;9.024;2023-04-24T08:10:05;95668.38;;;9.85;73.99
4012;BME280;2020;48.682;9.024;2023-04-24T08:12:30;95666.34;;;10.04;78.97
4012;BME280;2020;48.682;9.024;2023-04-24T08:14:56;95669.00;;;9.87;73.13
4012;BME280;2020;48.682;9.024;2023-04-24T08:17:21;95664.38;;;10.06;73.85
4012;BME280;2020;48.682;9.024;2023-04-24T08:19:46;95674.00;;;10.29;73.90
4012;BME280;2020;48.682;9.024;2023-04-24T08:22:16;95685.59;;;10.49;74.35
4012;BME280;2020;48.682;9.024;2023-04-24T08:24:41;95675.75;;;10.60;76.54
4012;BME280;2020;48.682;9.024;2023-04-24T08:27:06;95674.19;;;10.89;70.51
4012;BME280;2020;48.682;9.024;2023-04-24T08:29:32;95667.94;;;10.98;69.62
4012;BME280;2020;48.682;9.024;2023-04-24T08:31:58;95673.19;;;11.28;72.44
4012;BME280;2020;48.682;9.024;2023-04-24T08:34:23;95681.63;;;11.30;66.05
4012;BME280;2020;48.682;9.024;2023-04-24T08:36:48;95682.59;;;11.14;70.90
4012;BME280;2020;48.682;9.024;2023-04-24T08:39:14;95694.31;;;10.57;64.11
4012;BME280;2020;48.682;9.024;2023-04-24T08:41:41;95709.97;;;10.48;68.53
4012;BME280;2020;48.682;9.024;2023-04-24T08:44:09;95703.94;;;10.24;67.41
4012;BME280;2020;48.682;9.024;2023-04-24T08:46:35;95717.31;;;10.13;67.42
4012;BME280;2020;48.682;9.024;2023-04-24T08:49:01;95716.63;;;10.19;67.06
4012;BME280;2020;48.682;9.024;2023-04-24T08:51:27;95721.50;;;10.22;66.62
4012;BME280;2020;48.682;9.024;2023-04-24T08:53:55;95726.59;;;10.07;72.24
4012;BME280;2020;48.682;9.024;2023-04-24T08:56:21;95719.69;;;9.91;66.23
4012;BME280;2020;48.682;9.024;2023-04-24T08:58:53;95724.25;;;10.52;68.13
4012;BME280;2020;48.682;9.024;2023-04-24T09:01:24;95734.50;;;10.77;69.64
4012;BME280;2020;48.682;9.024;2023-04-24T09:03:51;95728.16;;;10.80;69.43
4012;BME280;2020;48.682;9.024;2023-04-24T09:06:17;95728.25;;;10.63;67.25
4012;BME280;2020;48.682;9.024;2023-04-24T09:08:43;95727.22;;;10.49;68.44
4012;BME280;2020;48.682;9.024;2023-04-24T09:11:11;95724.69;;;10.33;65.75
4012;BME280;2020;48.682;9.024;2023-04-24T09:13:37;95723.88;;;10.01;63.52
4012;BME280;2020;48.682;9.024;2023-04-24T09:16:02;95727.50;;;10.55;64.86
4012;BME280;2020;48.682;9.024;2023-04-24T09:18:27;95727.66;;;11.00;60.48
4012;BME280;2020;48.682;9.024;2023-04-24T09:21:06;95719.38;;;11.34;59.07
4012;BME280;2020;48.682;9.024;2023-04-24T09:23:31;95722.69;;;11.43;59.39
4012;BME280;2020;48.682;9.024;2023-04-24T09:28:27;95730.03;;;11.99;61.22
4012;BME280;2020;48.682;9.024;2023-04-24T09:33:32;95741.88;;;12.32;59.30
4012;BME280;2020;48.682;9.024;2023-04-24T09:35:57;95739.38;;;12.61;60.01
4012;BME280;2020;48.682;9.024;2023-04-24T09:38:37;95735.69;;;12.98;59.41
4012;BME280;2020;48.682;9.024;2023-04-24T09:41:04;95739.78;;;12.06;51.59
4012;BME280;2020;48.682;9.024;2023-04-24T09:43:31;95746.41;;;11.93;56.31
4012;BME280;2020;48.682;9.024;2023-04-24T09:45:57;95743.88;;;11.40;53.39
4012;BME280;2020;48.682;9.024;2023-04-24T09:48:34;95748.13;;;11.56;54.73
4012;BME280;2020;48.682;9.024;2023-04-24T09:51:01;95752.59;;;11.32;53.34
4012;BME280;2020;48.682;9.024;2023-04-24T09:53:28;95767.56;;;10.92;55.68
4012;BME280;2020;48.682;9.024;2023-04-24T09:55:53;95770.00;;;10.38;54.61
4012;BME280;2020;48.682;9.024;2023-04-24T09:58:24;95774.56;;;10.36;54.47
4012;BME280;2020;48.682;9.024;2023-04-24T10:00:53;95763.53;;;10.66;56.28
4012;BME280;2020;48.682;9.024;2023-04-24T10:03:19;95769.47;;;11.21;58.40
4012;BME280;2020;48.682;9.024;2023-04-24T10:05:46;95783.19;;;11.68;56.21
4012;BME280;2020;48.682;9.024;2023-04-24T10:08:12;95774.19;;;12.16;56.81
4012;BME280;2020;48.682;9.024;2023-04-24T10:10:40;95783.81;;;12.31;55.22
4012;BME280;2020;48.682;9.024;2023-04-24T10:13:07;95774.03;;;12.03;54.89
4012;BME280;2020;48.682;9.024;2023-04-24T10:15:32;95771.44;;;12.18;55.10
4012;BME280;2020;48.682;9.024;2023-04-24T10:17:59;95783.25;;;11.75;53.28
4012;BME280;2020;48.682;9.024;2023-04-24T10:20:26;95782.56;;;11.81;55.56
4012;BME280;2020;48.682;9.024;2023-04-24T10:22:53;95782.28;;;11.61;53.17
4012;BME280;2020;48.682;9.024;2023-04-24T10:25:20;95785.88;;;11.60;62.59
4012;BME280;2020;48.682;9.024;2023-04-24T10:27:47;95790.59;;;11.03;55.05
4012;BME280;2020;48.682;9.024;2023-04-24T10:30:14;95790.13;;;10.76;57.66
4012;BME280;2020;48.682;9.024;2023-04-24T10:32:39;95791.88;;;11.07;59.74
4012;BME280;2020;48.682;9.024;2023-04-24T10:35:09;95795.09;;;11.09;56.46
4012;BME280;2020;48.682;9.024;2023-04-24T10:37:40;95792.78;;;11.15;57.27
4012;BME280;2020;48.682;9.024;2023-04-24T10:40:07;95803.13;;;11.61;59.18
4012;BME280;2020;48.682;9.024;2023-04-24T10:42:33;95800.41;;;11.39;59.39
4012;BME280;2020;48.682;9.024;2023-04-24T10:44:59;95801.78;;;11.65;58.64
4012;BME280;2020;48.682;9.024;2023-04-24T10:47:27;95803.38;;;11.51;56.16
4012;BME280;2020;48.682;9.024;2023-04-24T10:49:52;95814.88;;;11.19;55.08
4012;BME280;2020;48.682;9.024;2023-04-24T10:52:18;95814.16;;;10.87;56.59
4012;BME280;2020;48.682;9.024;2023-04-24T10:54:45;95809.69;;;11.19;59.75
4012;BME280;2020;48.682;9.024;2023-04-24T11:00:18;95824.59;;;11.25;58.23
4012;BME280;2020;48.682;9.024;2023-04-24T11:02:46;95817.69;;;11.17;57.86
4012;BME280;2020;48.682;9.024;2023-04-24T11:05:15;95810.84;;;11.16;57.17
4012;BME280;2020;48.682;9.024;2023-04-24T11:08:10;95817.84;;;11.16;59.04
4012;BME280;2020;48.682;9.024;2023-04-24T11:10:44;95816.06;;;10.93;56.38
4012;BME280;2020;48.682;9.024;2023-04-24T11:13:10;95819.44;;;11.40;59.48
4012;BME280;2020;48.682;9.024;2023-04-24T11:15:41;95825.97;;;10.97;57.73
4012;BME280;2020;48.682;9.024;2023-04-24T11:18:13;95816.69;;;10.95;55.17
4012;BME280;2020;48.682;9.024;2023-04-24T11:20:42;95823.13;;;11.07;60.43
4012;BME280;2020;48.682;9.024;2023-04-24T11:23:07;95821.44;;;11.15;58.08
4012;BME280;2020;48.682;9.024;2023-04-24T11:25:33;95828.22;;;11.01;58.42
4012;BME280;2020;48.682;9.024;2023-04-24T11:28:04;95831.63;;;10.46;57.51
4012;BME280;2020;48.682;9.024;2023-04-24T11:30:31;95838.91;;;10.03;62.49
4012;BME280;2020;48.682;9.024;2023-04-24T11:33:04;95857.13;;;10.03;60.00
4012;BME280;2020;48.682;9.024;2023-04-24T11:35:35;95857.09;;;10.11;59.88
4012;BME280;2020;48.682;9.024;2023-04-24T11:38:02;95854.44;;;10.28;61.27
4012;BME280;2020;48.682;9.024;2023-04-24T11:40:28;95837.97;;;10.44;61.52
4012;BME280;2020;48.682;9.024;2023-04-24T11:42:53;95855.56;;;10.25;60.23
4012;BME280;2020;48.682;9.024;2023-04-24T11:45:24;95863.25;;;10.18;62.79
4012;BME280;2020;48.682;9.024;2023-04-24T11:47:50;95853.88;;;10.01;61.55
4012;BME280;2020;48.682;9.024;2023-04-24T11:50:18;95854.09;;;10.31;61.82
4012;BME280;2020;48.682;9.024;2023-04-24T11:52:45;95856.03;;;10.45;62.08
4012;BME280;2020;48.682;9.024;2023-04-24T11:57:41;95838.34;;;10.64;60.77
4012;BME280;2020;48.682;9.024;2023-04-24T12:00:15;95851.41;;;10.56;58.81
4012;BME280;2020;48.682;9.024;2023-04-24T12:02:41;95851.81;;;10.36;60.94
4012;BME280;2020;48.682;9.024;2023-04-24T12:05:06;95857.06;;;10.19;60.61
4012;BME280;2020;48.682;9.024;2023-04-24T12:07:40;95859.31;;;10.22;60.47
4012;BME280;2020;48.682;9.024;2023-04-24T12:10:07;95860.97;;;10.15;60.83
4012;BME280;2020;48.682;9.024;2023-04-24T12:12:33;95874.00;;;9.90;60.03
4012;BME280;2020;48.682;9.024;2023-04-24T12:14:58;95863.94;;;10.04;61.66
4012;BME280;2020;48.682;9.024;2023-04-24T12:17:30;95873.03;;;10.08;58.64
4012;BME280;2020;48.682;9.024;2023-04-24T12:20:06;95865.03;;;10.18;60.10
4012;BME280;2020;48.682;9.024;2023-04-24T12:25:15;95857.09;;;10.11;59.04
4012;BME280;2020;48.682;9.024;2023-04-24T12:27:41;95868.69;;;10.48;61.08
4012;BME280;2020;48.682;9.024;2023-04-24T12:30:14;95865.47;;;10.78;59.99
4012;BME280;2020;48.682;9.024;2023-04-24T12:32:44;95862.56;;;10.24;59.97
4012;BME280;2020;48.682;9.024;2023-04-24T12:35:10;95879.53;;;10.04;60.96
4012;BME280;2020;48.682;9.024;2023-04-24T12:37:36;95869.19;;;10.35;61.77
4012;BME280;2020;48.682;9.024;2023-04-24T12:40:03;95878.19;;;10.73;61.12
4012;BME280;2020;48.682;9.024;2023-04-24T12:42:29;95884.75;;;10.04;59.95
4012;BME280;2020;48.682;9.024;2023-04-24T12:45:06;95872.66;;;10.19;62.93
4012;BME280;2020;48.682;9.024;2023-04-24T12:47:32;95875.97;;;9.97;60.07
4012;BME280;2020;48.682;9.024;2023-04-24T12:49:59;95878.59;;;9.80;61.47
4012;BME280;2020;48.682;9.024;2023-04-24T12:52:26;95867.03;;;9.99;60.78
4012;BME280;2020;48.682;9.024;2023-04-24T12:54:56;95869.56;;;10.24;63.13
4012;BME280;2020;48.682;9.024;2023-04-24T12:57:23;95872.94;;;10.33;61.99
4012;BME280;2020;48.682;9.024;2023-04-24T12:59:49;95880.75;;;10.41;64.31
4012;BME280;2020;48.682;9.024;2023-04-24T13:02:15;95865.81;;;10.27;63.74
4012;BME280;2020;48.682;9.024;2023-04-24T13:04:44;95873.38;;;9.97;62.14
4012;BME280;2020;48.682;9.024;2023-04-24T13:07:09;95879.88;;;10.01;63.36
4012;BME280;2020;48.682;9.024;2023-04-24T13:09:35;95880.22;;;9.98;61.28
4012;BME280;2020;48.682;9.024;2023-04-24T13:12:00;95871.44;;;9.99;62.28
4012;BME280;2020;48.682;9.024;2023-04-24T13:14:26;95876.41;;;10.08;61.62
4012;BME280;2020;48.682;9.024;2023-04-24T13:16:52;95875.28;;;10.11;62.52
4012;BME280;2020;48.682;9.024;2023-04-24T13:19:18;95879.84;;;10.09;62.92
4012;BME280;2020;48.682;9.024;2023-04-24T13:21:43;95882.16;;;9.79;62.14
4012;BME280;2020;48.682;9.024;2023-04-24T13:24:09;95885.75;;;9.94;64.56
4012;BME280;2020;48.682;9.024;2023-04-24T13:26:34;95884.28;;;9.84;64.94
4012;BME280;2020;48.682;9.024;2023-04-24T13:29:00;95882.50;;;9.68;64.87
4012;BME280;2020;48.682;9.024;2023-04-24T13:31:25;95883.66;;;9.40;65.13
4012;BME280;2020;48.682;9.024;2023-04-24T13:33:51;95889.97;;;9.71;67.37
4012;BME280;2020;48.682;9.024;2023-04-24T13:36:16;95889.00;;;9.47;63.83